Time;durP1;ratioP1;P1;durP2;ratioP2;P2;SDS_P1;SDS_P2;PMS_P1;PMS_P2;Temp;Humidity;BMP_temperature;BMP_pressure;BME280_temperature;BME280_humidity;BME280_pressure;Samples;Min_cycle;Max_cycle;Signal;HPM_P1;HPM_P2
2021/05/10 00:00:53;;;;;;;20.17;15.20;;;17.20;99.90;;;;;;5044725;28;20102;-85
2021/05/10 00:03:21;;;;;;;19.08;14.57;;;17.20;99.90;;;;;;5051151;28;20104;-85
2021/05/10 00:05:50;;;;;;;19.17;14.73;;;17.20;99.90;;;;;;5037518;28;20053;-85
2021/05/10 00:08:17;;;;;;;20.40;15.73;;;17.20;99.90;;;;;;5045324;28;20102;-86
2021/05/10 00:10:43;;;;;;;20.52;17.48;;;17.20;99.90;;;;;;5035279;28;20053;-86
2021/05/10 00:13:15;;;;;;;22.77;16.58;;;17.00;99.90;;;;;;5049375;28;20028;-85
2021/05/10 00:15:41;;;;;;;18.17;15.38;;;16.90;99.90;;;;;;5054514;28;20131;-84
2021/05/10 00:18:08;;;;;;;22.77;15.85;;;16.80;99.90;;;;;;5047779;28;20037;-85
2021/05/10 00:20:37;;;;;;;24.20;17.73;;;16.80;99.90;;;;;;5051079;28;20065;-86
2021/05/10 00:23:05;;;;;;;20.90;16.40;;;16.80;99.90;;;;;;5048958;28;20076;-84
2021/05/10 00:25:32;;;;;;;28.67;17.95;;;16.80;99.90;;;;;;5052016;28;20135;-85
2021/05/10 00:27:58;;;;;;;24.63;17.27;;;16.80;99.90;;;;;;5041249;28;20052;-85
2021/05/10 00:30:25;;;;;;;24.48;17.73;;;16.80;99.90;;;;;;5060574;28;20052;-85
2021/05/10 00:32:55;;;;;;;25.02;17.20;;;16.80;99.90;;;;;;5048716;28;20037;-85
2021/05/10 00:35:23;;;;;;;21.33;16.55;;;16.80;99.90;;;;;;5065383;28;20025;-85
2021/05/10 00:37:49;;;;;;;24.10;17.33;;;16.80;99.90;;;;;;5062476;28;20048;-85
2021/05/10 00:40:19;;;;;;;22.40;16.92;;;16.80;99.90;;;;;;5053749;28;20056;-84
2021/05/10 00:42:46;;;;;;;22.23;17.05;;;16.80;99.90;;;;;;5043990;28;20552;-85
2021/05/10 00:45:13;;;;;;;25.02;18.27;;;16.80;99.90;;;;;;5049120;28;20045;-84
2021/05/10 00:47:40;;;;;;;21.45;16.35;;;16.90;99.90;;;;;;5051676;28;20113;-86
2021/05/10 00:50:09;;;;;;;22.73;17.13;;;16.80;99.90;;;;;;5050209;28;20063;-85
2021/05/10 00:52:36;;;;;;;23.67;17.38;;;16.80;99.90;;;;;;5061975;28;20098;-85
2021/05/10 00:55:04;;;;;;;22.58;15.60;;;16.80;99.90;;;;;;5046275;28;20044;-85
2021/05/10 00:57:35;;;;;;;21.33;17.38;;;16.70;99.90;;;;;;5060041;28;20841;-85
2021/05/10 01:00:08;;;;;;;25.35;17.35;;;16.70;99.90;;;;;;5048482;28;20045;-85
2021/05/10 01:02:35;;;;;;;22.58;16.88;;;16.60;99.90;;;;;;5063449;28;20131;-85
2021/05/10 01:05:04;;;;;;;24.35;17.25;;;16.60;99.90;;;;;;5047655;28;20041;-85
2021/05/10 01:07:31;;;;;;;22.00;16.38;;;16.60;99.90;;;;;;5046689;28;20080;-85
2021/05/10 01:09:58;;;;;;;20.77;16.83;;;16.60;99.90;;;;;;5036717;28;20047;-86
2021/05/10 01:12:24;;;;;;;21.45;16.65;;;16.60;99.90;;;;;;5062026;28;20072;-85
2021/05/10 01:14:51;;;;;;;23.17;17.67;;;16.60;99.90;;;;;;5047018;28;20045;-85
2021/05/10 01:17:18;;;;;;;23.58;17.35;;;16.60;99.90;;;;;;5054826;28;20080;-86
2021/05/10 01:19:44;;;;;;;22.60;16.45;;;16.60;99.90;;;;;;5052771;28;20264;-86
2021/05/10 01:22:12;;;;;;;24.00;17.00;;;16.60;99.90;;;;;;5049373;28;20041;-85
2021/05/10 01:24:38;;;;;;;24.17;16.05;;;16.50;99.90;;;;;;5048805;28;20679;-84
2021/05/10 01:27:05;;;;;;;19.20;15.18;;;16.50;99.90;;;;;;5048039;28;20052;-84
2021/05/10 01:29:31;;;;;;;18.75;14.63;;;16.60;99.90;;;;;;5049289;28;20451;-84
2021/05/10 01:31:58;;;;;;;18.95;13.75;;;16.50;99.90;;;;;;5050130;28;20083;-84
2021/05/10 01:34:25;;;;;;;17.45;12.77;;;16.50;99.90;;;;;;5048537;28;20049;-84
2021/05/10 01:36:51;;;;;;;19.75;13.73;;;16.50;99.90;;;;;;5054146;28;20084;-86
2021/05/10 01:39:17;;;;;;;17.55;13.55;;;16.40;99.90;;;;;;5048803;28;20128;-84
2021/05/10 01:41:43;;;;;;;20.25;14.00;;;16.40;99.90;;;;;;5044023;28;20051;-85
2021/05/10 01:44:10;;;;;;;19.08;13.57;;;16.40;99.90;;;;;;5050584;28;20113;-85
2021/05/10 01:46:36;;;;;;;17.02;12.82;;;16.40;99.90;;;;;;5056353;28;20057;-85
2021/05/10 01:49:03;;;;;;;18.92;14.10;;;16.40;99.90;;;;;;5053768;28;20045;-85
2021/05/10 01:51:29;;;;;;;19.95;14.02;;;16.30;99.90;;;;;;5048428;28;20440;-84
2021/05/10 01:53:55;;;;;;;16.85;13.80;;;16.30;99.90;;;;;;5037147;28;20091;-85
2021/05/10 01:56:22;;;;;;;16.42;12.95;;;16.30;99.90;;;;;;5048078;28;20546;-84
2021/05/10 01:58:53;;;;;;;18.85;13.70;;;16.30;99.90;;;;;;5050393;28;20048;-84
2021/05/10 02:01:20;;;;;;;19.83;12.98;;;16.30;99.90;;;;;;5049862;28;20132;-85
2021/05/10 02:03:47;;;;;;;17.55;13.75;;;16.30;99.90;;;;;;5043065;28;20568;-85
2021/05/10 02:06:15;;;;;;;16.25;12.90;;;16.30;99.90;;;;;;5038884;28;20496;-85
2021/05/10 02:08:41;;;;;;;15.55;12.93;;;16.30;99.90;;;;;;5048145;28;20063;-84
2021/05/10 02:11:07;;;;;;;17.38;13.77;;;16.30;99.90;;;;;;5049282;28;20064;-85
2021/05/10 02:13:34;;;;;;;16.05;13.63;;;16.30;99.90;;;;;;5048182;28;20053;-84
2021/05/10 02:16:02;;;;;;;17.52;13.75;;;16.30;99.90;;;;;;5049456;28;20394;-84
2021/05/10 02:18:34;;;;;;;18.80;14.20;;;16.30;99.90;;;;;;5055923;28;20067;-84
2021/05/10 02:21:01;;;;;;;18.60;14.48;;;16.20;99.90;;;;;;5046917;28;20049;-84
2021/05/10 02:23:30;;;;;;;18.55;14.52;;;16.20;99.90;;;;;;5044365;28;20052;-85
2021/05/10 02:25:59;;;;;;;19.58;14.30;;;16.20;99.90;;;;;;5037982;28;20072;-85
2021/05/10 02:28:27;;;;;;;21.90;15.20;;;16.20;99.90;;;;;;5064758;28;20056;-85
2021/05/10 02:30:57;;;;;;;18.90;14.55;;;16.10;99.90;;;;;;5049520;28;20055;-85
2021/05/10 02:33:31;;;;;;;19.13;14.60;;;16.10;99.90;;;;;;5048287;28;20080;-85
2021/05/10 02:35:58;;;;;;;18.30;14.45;;;16.10;99.90;;;;;;5056136;28;20033;-84
2021/05/10 02:38:26;;;;;;;19.42;14.27;;;16.10;99.90;;;;;;5058163;28;20061;-84
2021/05/10 02:40:53;;;;;;;19.77;14.73;;;16.10;99.90;;;;;;5055577;28;20120;-84
2021/05/10 02:43:26;;;;;;;26.05;14.15;;;16.10;99.90;;;;;;5047823;28;20095;-84
2021/05/10 02:45:53;;;;;;;23.25;14.32;;;16.00;99.90;;;;;;5050178;28;20036;-84
2021/05/10 02:48:19;;;;;;;18.90;13.73;;;16.10;99.90;;;;;;5047024;28;20052;-84
2021/05/10 02:50:46;;;;;;;19.08;13.77;;;16.10;99.90;;;;;;5055302;28;20400;-84
2021/05/10 02:53:12;;;;;;;18.40;13.82;;;16.10;99.90;;;;;;5053987;28;20496;-84
2021/05/10 02:55:39;;;;;;;16.92;13.85;;;16.10;99.90;;;;;;5044016;28;20080;-84
2021/05/10 02:58:05;;;;;;;18.17;14.15;;;16.10;99.90;;;;;;5063672;28;20068;-85
2021/05/10 03:00:32;;;;;;;17.45;14.15;;;16.10;99.90;;;;;;5055236;28;20508;-85
2021/05/10 03:02:58;;;;;;;17.73;14.15;;;16.10;99.90;;;;;;5048310;28;20045;-85
2021/05/10 03:05:26;;;;;;;15.55;13.00;;;16.10;99.90;;;;;;5045646;28;20039;-85
2021/05/10 03:07:53;;;;;;;17.50;14.15;;;16.10;99.90;;;;;;5062882;28;20041;-84
2021/05/10 03:10:22;;;;;;;15.75;13.40;;;16.10;99.90;;;;;;5041536;28;20446;-85
2021/05/10 03:12:49;;;;;;;17.60;13.73;;;16.10;99.90;;;;;;5049661;28;21523;-85
2021/05/10 03:15:17;;;;;;;17.67;14.27;;;16.10;99.90;;;;;;5041336;28;20064;-85
2021/05/10 03:17:46;;;;;;;17.85;13.90;;;16.10;99.90;;;;;;5027379;28;20067;-85
2021/05/10 03:20:18;;;;;;;16.70;13.02;;;16.10;99.90;;;;;;5046439;28;20450;-86
2021/05/10 03:22:45;;;;;;;21.27;13.50;;;16.10;99.90;;;;;;5062480;28;20040;-85
2021/05/10 03:25:12;;;;;;;13.82;12.40;;;16.10;99.90;;;;;;5045959;28;20076;-85
2021/05/10 03:27:39;;;;;;;17.58;13.88;;;16.10;99.90;;;;;;5035198;28;20542;-84
2021/05/10 03:30:14;;;;;;;16.45;13.68;;;16.10;99.90;;;;;;5048393;28;20152;-85
2021/05/10 03:32:42;;;;;;;14.48;12.88;;;16.00;99.90;;;;;;5048013;28;20088;-84
2021/05/10 03:35:10;;;;;;;16.15;13.50;;;16.00;99.90;;;;;;5012971;28;20089;-86
2021/05/10 03:37:38;;;;;;;19.25;13.80;;;15.90;99.90;;;;;;5044005;28;20416;-85
2021/05/10 03:40:07;;;;;;;20.73;14.73;;;15.90;99.90;;;;;;5056975;28;20056;-86
2021/05/10 03:42:33;;;;;;;18.95;14.80;;;15.80;99.90;;;;;;5053412;28;20057;-85
2021/05/10 03:45:00;;;;;;;22.73;13.98;;;15.80;99.90;;;;;;5051258;28;20087;-85
2021/05/10 03:47:44;;;;;;;16.40;13.40;;;15.80;99.90;;;;;;5049263;28;20061;-86
2021/05/10 03:50:16;;;;;;;19.23;14.30;;;15.80;99.90;;;;;;5029513;28;20052;-85
2021/05/10 03:52:45;;;;;;;14.35;12.07;;;15.80;99.90;;;;;;5061937;28;20083;-85
2021/05/10 03:55:14;;;;;;;16.65;12.95;;;15.80;99.90;;;;;;5051522;28;20135;-86
2021/05/10 03:57:42;;;;;;;19.75;13.07;;;15.80;99.90;;;;;;5043580;28;20057;-86
2021/05/10 04:00:13;;;;;;;15.40;12.43;;;15.80;99.90;;;;;;5030788;28;20136;-88
2021/05/10 04:02:40;;;;;;;16.10;11.93;;;15.80;99.90;;;;;;5038394;28;20061;-86
2021/05/10 04:05:17;;;;;;;15.23;11.95;;;15.80;99.90;;;;;;5037861;28;20053;-86
2021/05/10 04:07:52;;;;;;;13.45;11.05;;;15.80;99.90;;;;;;5039149;28;20067;-86
2021/05/10 04:15:48;;;;;;;14.55;9.18;;;15.90;99.90;;;;;;5047577;28;20076;-86
2021/05/10 04:18:15;;;;;;;12.40;8.57;;;15.90;99.90;;;;;;5046734;28;20080;-87
2021/05/10 04:20:42;;;;;;;11.70;7.70;;;16.00;99.90;;;;;;5045944;28;20311;-87
2021/05/10 04:23:10;;;;;;;9.13;7.22;;;16.00;99.90;;;;;;5047907;28;20049;-87
2021/05/10 04:25:36;;;;;;;11.00;7.80;;;16.00;99.90;;;;;;5038635;28;20527;-87
2021/05/10 04:28:03;;;;;;;9.93;6.43;;;16.10;99.90;;;;;;5042071;28;20051;-86
2021/05/10 04:30:29;;;;;;;7.03;4.47;;;16.20;99.90;;;;;;5039995;28;20059;-88
2021/05/10 04:32:57;;;;;;;6.75;4.90;;;16.20;99.90;;;;;;5043251;28;20053;-87
2021/05/10 04:35:23;;;;;;;6.93;4.30;;;16.30;99.90;;;;;;5048706;28;20064;-87
2021/05/10 04:37:50;;;;;;;4.85;3.75;;;16.40;99.90;;;;;;5039973;28;20143;-87
2021/05/10 04:40:17;;;;;;;3.60;3.28;;;16.50;99.90;;;;;;5045303;28;20116;-87
2021/05/10 04:42:45;;;;;;;3.47;3.08;;;16.70;99.90;;;;;;5047492;28;20056;-87
2021/05/10 04:45:12;;;;;;;4.75;2.40;;;16.90;99.90;;;;;;5047103;28;20051;-87
2021/05/10 04:47:41;;;;;;;4.43;2.28;;;17.00;99.90;;;;;;5045202;28;20139;-87
2021/05/10 04:50:10;;;;;;;3.50;2.42;;;17.20;99.90;;;;;;5047040;28;20532;-87
2021/05/10 04:52:37;;;;;;;5.63;3.03;;;17.30;99.90;;;;;;5046523;28;20144;-87
2021/05/10 04:55:06;;;;;;;3.15;2.33;;;17.50;99.90;;;;;;5026376;28;20086;-87
2021/05/10 04:57:32;;;;;;;3.60;2.17;;;17.60;99.90;;;;;;5060378;28;20523;-87
2021/05/10 04:59:58;;;;;;;2.20;1.88;;;17.60;99.90;;;;;;5055357;28;20404;-86
2021/05/10 05:02:25;;;;;;;1.88;1.75;;;17.70;99.90;;;;;;5044711;28;20076;-87
2021/05/10 05:04:52;;;;;;;2.55;1.85;;;17.70;99.90;;;;;;5056632;28;20057;-87
2021/05/10 05:07:19;;;;;;;2.70;2.17;;;17.80;99.90;;;;;;5060512;28;20060;-85
2021/05/10 05:09:45;;;;;;;4.65;1.60;;;17.80;99.90;;;;;;5057213;28;20095;-86
2021/05/10 05:12:11;;;;;;;3.30;1.63;;;17.90;99.90;;;;;;5045985;28;20053;-87
2021/05/10 05:14:41;;;;;;;5.88;1.65;;;18.00;99.90;;;;;;5060798;28;20057;-87
2021/05/10 05:17:08;;;;;;;2.25;1.60;;;18.00;99.90;;;;;;5045410;28;20047;-86
2021/05/10 05:19:35;;;;;;;2.83;1.55;;;18.10;99.90;;;;;;5039396;28;20061;-87
2021/05/10 05:22:01;;;;;;;4.13;2.33;;;18.10;99.90;;;;;;5045927;28;20072;-87
2021/05/10 05:24:27;;;;;;;5.60;1.67;;;18.10;99.90;;;;;;5060635;28;20087;-87
2021/05/10 05:26:54;;;;;;;3.22;1.60;;;18.10;99.90;;;;;;5041890;28;20075;-87
2021/05/10 05:29:22;;;;;;;4.78;1.48;;;18.10;99.90;;;;;;5037161;28;20077;-87
2021/05/10 05:31:54;;;;;;;2.42;1.40;;;18.20;99.90;;;;;;5060659;28;20075;-88
2021/05/10 05:34:21;;;;;;;4.28;1.63;;;18.30;99.90;;;;;;5040727;28;20056;-85
2021/05/10 05:36:47;;;;;;;2.30;1.27;;;18.30;99.90;;;;;;5048889;28;20450;-85
2021/05/10 05:39:14;;;;;;;2.65;1.20;;;18.40;99.90;;;;;;5048132;28;20411;-85
2021/05/10 05:41:40;;;;;;;3.40;1.60;;;18.50;99.90;;;;;;5046012;28;20151;-86
2021/05/10 05:44:07;;;;;;;1.98;1.45;;;18.60;99.90;;;;;;5061191;28;20063;-85
2021/05/10 05:46:47;;;;;;;4.60;1.40;;;18.60;99.90;;;;;;5042093;28;20133;-85
2021/05/10 05:49:16;;;;;;;2.58;1.50;;;18.70;99.90;;;;;;5061592;28;20055;-85
2021/05/10 05:51:46;;;;;;;2.55;1.33;;;18.70;99.90;;;;;;5060906;28;20079;-87
2021/05/10 05:54:13;;;;;;;6.25;1.52;;;18.70;99.90;;;;;;5041236;28;20078;-86
2021/05/10 05:56:39;;;;;;;3.28;1.48;;;18.70;99.90;;;;;;5043010;28;20136;-86
2021/05/10 05:59:06;;;;;;;9.10;1.60;;;18.60;99.90;;;;;;5043578;28;20049;-87
2021/05/10 06:01:32;;;;;;;3.83;1.30;;;18.60;99.90;;;;;;5055388;28;20486;-86
2021/05/10 06:03:58;;;;;;;1.63;1.30;;;18.60;99.90;;;;;;5050167;28;20086;-86
2021/05/10 06:06:25;;;;;;;8.05;1.85;;;18.50;99.90;;;;;;5047687;28;20044;-85
2021/05/10 06:08:51;;;;;;;4.60;1.50;;;18.50;99.90;;;;;;5049495;28;20049;-86
2021/05/10 06:11:18;;;;;;;14.25;1.65;;;18.50;99.90;;;;;;5045807;28;20044;-86
2021/05/10 06:13:44;;;;;;;2.88;1.15;;;18.50;99.90;;;;;;5048634;28;20048;-85
2021/05/10 06:16:10;;;;;;;1.33;1.23;;;18.40;99.90;;;;;;5044663;28;20483;-85
2021/05/10 06:18:37;;;;;;;4.00;1.35;;;18.30;99.90;;;;;;5044618;28;20091;-85
2021/05/10 06:21:06;;;;;;;2.30;0.88;;;18.20;99.90;;;;;;5043046;28;20116;-85
2021/05/10 06:23:34;;;;;;;2.42;0.90;;;18.20;99.90;;;;;;5043731;28;20055;-85
2021/05/10 06:26:06;;;;;;;7.30;0.70;;;18.20;99.90;;;;;;5058025;28;20048;-85
2021/05/10 06:28:33;;;;;;;0.82;0.40;;;18.20;99.90;;;;;;5044166;28;20044;-86
2021/05/10 06:30:59;;;;;;;0.73;0.40;;;18.20;99.90;;;;;;5027177;28;20118;-86
2021/05/10 06:33:26;;;;;;;1.60;0.40;;;18.20;99.90;;;;;;5057345;28;20119;-86
2021/05/10 06:35:52;;;;;;;3.03;0.70;;;18.20;99.90;;;;;;5045333;28;20487;-86
2021/05/10 06:38:19;;;;;;;2.90;0.30;;;18.10;99.90;;;;;;5055622;28;20488;-86
2021/05/10 06:40:46;;;;;;;0.43;0.35;;;18.10;99.90;;;;;;5043207;28;20496;-86
2021/05/10 06:43:12;;;;;;;1.15;0.60;;;18.10;99.90;;;;;;5043393;28;20495;-86
2021/05/10 06:45:39;;;;;;;1.90;0.35;;;18.10;99.90;;;;;;5048595;28;20059;-86
2021/05/10 06:48:05;;;;;;;0.98;0.40;;;18.10;99.90;;;;;;5042066;28;20044;-86
2021/05/10 06:50:35;;;;;;;0.73;0.35;;;18.10;99.90;;;;;;5001814;28;20073;-87
2021/05/10 06:53:08;;;;;;;0.47;0.30;;;18.10;99.90;;;;;;5046387;28;20044;-87
2021/05/10 06:55:37;;;;;;;0.68;0.40;;;18.00;99.90;;;;;;5031912;28;20064;-86
2021/05/10 06:58:09;;;;;;;4.30;0.30;;;18.00;99.90;;;;;;5031793;28;20110;-86
2021/05/10 07:00:38;;;;;;;1.40;0.60;;;17.90;99.90;;;;;;5019498;28;20052;-86
2021/05/10 07:03:04;;;;;;;1.50;0.60;;;17.90;99.90;;;;;;5033278;28;20492;-86
2021/05/10 07:05:31;;;;;;;2.42;0.40;;;18.00;99.90;;;;;;5032642;28;20600;-85
2021/05/10 07:07:57;;;;;;;0.90;0.40;;;18.20;99.90;;;;;;5044165;28;20049;-85
2021/05/10 07:10:24;;;;;;;1.08;0.47;;;18.20;99.90;;;;;;5047249;28;20041;-85
2021/05/10 07:12:50;;;;;;;0.50;0.47;;;18.20;99.90;;;;;;5040366;28;20053;-85
2021/05/10 07:15:16;;;;;;;0.88;0.50;;;18.10;99.90;;;;;;5037998;28;20095;-86
2021/05/10 07:17:43;;;;;;;0.85;0.75;;;18.10;99.90;;;;;;5042393;28;20084;-86
2021/05/10 07:20:10;;;;;;;0.68;0.65;;;18.20;99.90;;;;;;5054927;28;20124;-86
2021/05/10 07:22:36;;;;;;;2.92;0.80;;;18.20;99.90;;;;;;5042617;28;20535;-86
2021/05/10 07:25:03;;;;;;;2.10;0.70;;;18.30;99.90;;;;;;5060111;28;20140;-86
2021/05/10 07:27:29;;;;;;;1.00;0.90;;;18.40;99.90;;;;;;5043588;28;20083;-86
2021/05/10 07:29:58;;;;;;;2.83;1.02;;;18.40;99.90;;;;;;5042994;28;20083;-86
2021/05/10 07:32:24;;;;;;;2.22;1.23;;;18.40;99.90;;;;;;5042037;28;20048;-88
2021/05/10 07:34:51;;;;;;;1.60;0.70;;;18.50;99.90;;;;;;5051102;28;20048;-85
2021/05/10 07:37:18;;;;;;;1.52;0.98;;;18.50;99.90;;;;;;5051139;28;20136;-86
2021/05/10 07:39:44;;;;;;;0.95;0.80;;;18.50;99.90;;;;;;5046467;28;20132;-86
2021/05/10 07:42:10;;;;;;;3.53;1.00;;;18.40;99.90;;;;;;5044063;28;20079;-86
2021/05/10 07:44:37;;;;;;;1.90;0.95;;;18.40;99.90;;;;;;5041316;28;20072;-87
2021/05/10 07:47:03;;;;;;;1.45;0.80;;;18.60;99.90;;;;;;5071519;28;20052;-86
2021/05/10 07:49:30;;;;;;;3.67;0.82;;;18.90;99.90;;;;;;5051641;28;20061;-86
2021/05/10 07:51:56;;;;;;;0.75;0.60;;;19.20;99.90;;;;;;5062186;28;20059;-86
2021/05/10 07:54:22;;;;;;;2.08;0.98;;;19.20;99.90;;;;;;5078029;28;20037;-86
2021/05/10 07:56:49;;;;;;;0.85;0.80;;;19.40;99.90;;;;;;5076977;28;20049;-87
2021/05/10 07:59:15;;;;;;;2.10;1.10;;;19.30;99.90;;;;;;5062345;28;20059;-86
2021/05/10 08:01:41;;;;;;;1.23;0.82;;;19.30;99.90;;;;;;5062504;28;20041;-86
2021/05/10 08:04:08;;;;;;;1.45;0.95;;;19.30;99.90;;;;;;5076522;28;20041;-87
2021/05/10 08:06:34;;;;;;;3.50;1.10;;;19.40;99.90;;;;;;5048528;28;20055;-86
2021/05/10 08:09:00;;;;;;;3.55;1.35;;;19.60;99.90;;;;;;5038883;28;20127;-88
2021/05/10 08:11:27;;;;;;;3.85;1.27;;;19.80;99.90;;;;;;5029244;28;20360;-87
2021/05/10 08:13:57;;;;;;;2.83;1.40;;;19.90;99.90;;;;;;5053436;28;20040;-87
2021/05/10 08:16:23;;;;;;;3.78;1.40;;;19.70;99.90;;;;;;5041900;28;20120;-86
2021/05/10 08:18:49;;;;;;;3.08;1.30;;;19.60;99.90;;;;;;5039290;28;20414;-87
2021/05/10 08:21:17;;;;;;;0.93;0.93;;;19.40;99.90;;;;;;5013268;28;20053;-86
2021/05/10 08:23:43;;;;;;;1.38;0.95;;;19.10;99.90;;;;;;5061891;28;20091;-86
2021/05/10 08:26:10;;;;;;;2.50;1.08;;;18.80;99.90;;;;;;5064662;28;20075;-86
2021/05/10 08:28:36;;;;;;;2.03;1.33;;;18.60;99.90;;;;;;5067104;28;20060;-86
2021/05/10 08:31:03;;;;;;;1.55;1.42;;;18.40;99.90;;;;;;5055775;28;20057;-86
2021/05/10 08:33:30;;;;;;;4.20;2.47;;;18.10;99.90;;;;;;5064035;28;20056;-87
2021/05/10 08:35:57;;;;;;;3.22;1.75;;;17.70;99.90;;;;;;5063988;28;20048;-86
2021/05/10 08:38:23;;;;;;;3.13;1.65;;;17.30;99.90;;;;;;5080022;28;20029;-87
2021/05/10 08:40:51;;;;;;;4.78;1.75;;;17.00;99.90;;;;;;5063110;28;20067;-85
2021/05/10 08:43:22;;;;;;;2.33;2.10;;;16.70;99.90;;;;;;5064199;28;20145;-85
2021/05/10 08:45:57;;;;;;;6.38;2.75;;;16.60;99.90;;;;;;5073860;28;20049;-85
2021/05/10 08:48:25;;;;;;;1.95;1.85;;;16.50;99.90;;;;;;5055110;28;20037;-85
2021/05/10 08:50:52;;;;;;;3.70;1.90;;;16.40;99.90;;;;;;5050999;28;20145;-86
2021/05/10 08:53:39;;;;;;;3.08;2.03;;;16.40;99.90;;;;;;5052517;28;20044;-85
2021/05/10 08:56:07;;;;;;;4.57;2.22;;;16.50;99.90;;;;;;5051398;28;20447;-85
2021/05/10 08:58:45;;;;;;;4.97;1.92;;;16.50;99.90;;;;;;5044313;28;20083;-85
2021/05/10 09:01:12;;;;;;;5.00;2.67;;;16.40;99.90;;;;;;5065689;28;20051;-86
2021/05/10 09:03:45;;;;;;;5.60;1.88;;;16.10;99.90;;;;;;5047252;28;20045;-85
2021/05/10 09:06:15;;;;;;;3.75;1.02;;;15.80;99.90;;;;;;5045150;28;20040;-85
2021/05/10 09:08:43;;;;;;;4.70;1.30;;;15.40;99.90;;;;;;5062418;28;20052;-85
2021/05/10 09:11:18;;;;;;;4.07;1.27;;;15.00;99.90;;;;;;5067157;28;20049;-85
2021/05/10 09:13:45;;;;;;;2.05;1.20;;;14.80;99.90;;;;;;5050112;28;20064;-85
2021/05/10 09:16:14;;;;;;;4.40;2.05;;;14.70;99.90;;;;;;5065990;28;20113;-84
2021/05/10 09:18:58;;;;;;;2.10;1.35;;;14.60;99.90;;;;;;5048603;28;20108;-84
2021/05/10 09:21:27;;;;;;;3.42;1.30;;;14.70;99.90;;;;;;5050653;28;20528;-84
2021/05/10 09:24:24;;;;;;;6.95;2.05;;;14.80;99.90;;;;;;5064154;28;20136;-84
2021/05/10 09:27:36;;;;;;;3.65;1.98;;;14.90;99.90;;;;;;5052045;28;20100;-84
2021/05/10 09:30:19;;;;;;;2.50;1.80;;;15.00;99.90;;;;;;5049624;28;20040;-84
2021/05/10 09:32:54;;;;;;;4.05;1.70;;;15.00;99.90;;;;;;5051604;28;20044;-85
2021/05/10 09:35:26;;;;;;;4.88;1.80;;;15.10;99.90;;;;;;5058466;28;20596;-86
2021/05/10 09:37:58;;;;;;;1.50;1.40;;;15.30;99.90;;;;;;5062538;28;20044;-84
2021/05/10 09:40:28;;;;;;;2.03;1.77;;;15.30;99.90;;;;;;5061342;28;20076;-84
2021/05/10 09:43:07;;;;;;;4.65;2.38;;;15.40;99.90;;;;;;5048988;28;20120;-86
2021/05/10 09:45:39;;;;;;;3.45;2.65;;;15.50;99.90;;;;;;5063329;28;20412;-84
2021/05/10 09:48:36;;;;;;;5.03;2.35;;;15.60;99.90;;;;;;5050298;28;20048;-84
2021/05/10 09:51:14;;;;;;;2.80;1.88;;;15.70;99.90;;;;;;5060005;28;20049;-84
2021/05/10 09:53:55;;;;;;;4.22;2.35;;;15.80;99.90;;;;;;5053635;28;20049;-85
2021/05/10 09:58:53;;;;;;;2.35;2.10;;;15.90;99.90;;;;;;5052660;28;20049;-85
2021/05/10 10:01:20;;;;;;;3.95;2.00;;;15.90;99.90;;;;;;5049705;28;20132;-85
2021/05/10 10:03:59;;;;;;;3.60;2.05;;;16.10;99.90;;;;;;5052404;28;20061;-85
2021/05/10 10:06:28;;;;;;;2.83;1.60;;;16.10;99.90;;;;;;5047959;28;20073;-84
2021/05/10 10:08:57;;;;;;;2.92;1.20;;;16.20;99.90;;;;;;5064506;28;20073;-84
2021/05/10 10:11:26;;;;;;;3.00;1.90;;;16.20;99.90;;;;;;5048717;28;20139;-84
2021/05/10 10:13:55;;;;;;;4.20;1.67;;;16.20;99.90;;;;;;5051816;28;20045;-85
2021/05/10 10:16:27;;;;;;;2.85;1.50;;;16.30;99.90;;;;;;5064296;28;20048;-84
2021/05/10 10:18:57;;;;;;;1.98;1.80;;;16.30;99.90;;;;;;5048988;28;20049;-84
2021/05/10 10:21:24;;;;;;;3.53;1.50;;;16.40;99.90;;;;;;5047143;28;20049;-83
2021/05/10 10:24:02;;;;;;;2.00;1.60;;;16.40;99.90;;;;;;5050473;28;20071;-84
2021/05/10 10:26:48;;;;;;;3.65;2.08;;;16.50;99.90;;;;;;5047767;28;20492;-84
2021/05/10 10:29:16;;;;;;;3.10;2.55;;;16.60;99.90;;;;;;5048644;28;20048;-84
2021/05/10 10:31:48;;;;;;;2.50;2.30;;;16.60;99.90;;;;;;5046465;28;20037;-85
2021/05/10 10:34:35;;;;;;;3.45;2.80;;;16.60;99.90;;;;;;5050631;28;20102;-85
2021/05/10 10:37:04;;;;;;;2.65;2.45;;;16.60;99.90;;;;;;5030557;28;20055;-84
2021/05/10 10:39:35;;;;;;;5.03;2.88;;;16.60;99.90;;;;;;5061363;28;20106;-84
2021/05/10 10:42:09;;;;;;;3.25;3.05;;;16.70;99.90;;;;;;5049606;28;20076;-85
2021/05/10 10:44:52;;;;;;;4.65;3.70;;;16.80;99.90;;;;;;5042933;28;20064;-84
2021/05/10 10:48:08;;;;;;;3.72;3.42;;;16.90;99.90;;;;;;5048419;28;20056;-84
2021/05/10 10:51:00;;;;;;;5.35;2.90;;;17.00;99.90;;;;;;5047653;28;20407;-85
2021/05/10 10:53:47;;;;;;;3.30;2.40;;;17.20;99.90;;;;;;5047152;28;20068;-85
2021/05/10 10:56:15;;;;;;;4.07;2.65;;;17.50;99.90;;;;;;5048435;28;20132;-85
2021/05/10 10:58:43;;;;;;;3.97;3.28;;;17.70;99.90;;;;;;5037909;28;20063;-85
2021/05/10 11:01:20;;;;;;;4.28;2.88;;;18.00;99.90;;;;;;5061189;28;21450;-85
2021/05/10 11:03:52;;;;;;;1.95;1.08;;;18.20;99.90;;;;;;5031183;28;20045;-84
2021/05/10 11:06:21;;;;;;;3.28;1.08;;;18.20;99.90;;;;;;5032788;28;20079;-85
2021/05/10 11:08:50;;;;;;;5.07;1.05;;;18.00;99.90;;;;;;5067667;28;20056;-85
2021/05/10 11:11:34;;;;;;;1.17;0.70;;;17.80;99.90;;;;;;5020600;28;20056;-84
2021/05/10 11:14:01;;;;;;;4.80;2.05;;;17.50;99.90;;;;;;5035020;28;20492;-85
2021/05/10 11:16:53;;;;;;;3.83;1.00;;;17.30;99.90;;;;;;5035194;28;20092;-85
2021/05/10 11:19:35;;;;;;;2.58;0.88;;;17.10;99.90;;;;;;5038202;28;20419;-85
2021/05/10 11:22:37;;;;;;;5.25;1.15;;;17.00;99.90;;;;;;5034509;28;20073;-85
2021/05/10 11:25:34;;;;;;;4.47;1.20;;;16.90;99.90;;;;;;5044141;28;20062;-85
2021/05/10 11:28:32;;;;;;;7.95;2.30;;;16.80;99.90;;;;;;5020156;28;20056;-85
2021/05/10 11:31:03;;;;;;;6.75;0.85;;;16.80;99.90;;;;;;5006584;28;20052;-85
2021/05/10 11:33:51;;;;;;;8.27;2.60;;;16.80;99.90;;;;;;5065060;28;20140;-85
2021/05/10 11:36:25;;;;;;;3.13;1.05;;;16.70;99.90;;;;;;5064110;28;20046;-84
2021/05/10 11:38:57;;;;;;;2.00;1.20;;;16.70;99.90;;;;;;5024996;28;20041;-85
2021/05/10 11:41:37;;;;;;;4.35;1.10;;;16.70;99.90;;;;;;5051171;28;20044;-84
2021/05/10 11:44:08;;;;;;;3.55;1.10;;;16.70;99.90;;;;;;5043884;28;20048;-85
2021/05/10 11:46:39;;;;;;;4.35;1.20;;;16.70;99.90;;;;;;5048624;28;20139;-84
2021/05/10 11:49:27;;;;;;;3.35;1.20;;;16.60;99.90;;;;;;5047683;28;20522;-84
2021/05/10 11:51:56;;;;;;;7.50;1.95;;;16.70;99.90;;;;;;5034597;28;20496;-85
2021/05/10 11:54:23;;;;;;;5.53;1.48;;;16.70;99.90;;;;;;5049357;28;20522;-85
2021/05/10 11:56:58;;;;;;;2.03;1.10;;;17.00;99.90;;;;;;5033537;28;20135;-85
2021/05/10 11:59:39;;;;;;;4.05;1.33;;;17.00;99.90;;;;;;5013950;28;20065;-85
2021/05/10 12:02:09;;;;;;;4.50;2.15;;;17.00;99.90;;;;;;5047249;28;20041;-85
2021/05/10 12:04:38;;;;;;;4.60;1.35;;;16.80;99.90;;;;;;5065997;28;20064;-85
2021/05/10 12:07:08;;;;;;;5.30;1.92;;;16.60;99.90;;;;;;5052375;28;20045;-85
2021/05/10 12:09:38;;;;;;;8.82;1.92;;;16.40;99.90;;;;;;5051800;28;20064;-85
2021/05/10 12:12:45;;;;;;;3.88;1.65;;;16.30;99.90;;;;;;5066804;28;20083;-85
2021/05/10 12:15:21;;;;;;;6.95;1.80;;;16.30;99.90;;;;;;5045840;28;20053;-85
2021/05/10 12:17:52;;;;;;;3.25;1.90;;;16.40;99.90;;;;;;5046717;28;20053;-84
2021/05/10 12:20:27;;;;;;;3.85;1.80;;;16.60;99.90;;;;;;5067043;28;20057;-85
2021/05/10 12:22:58;;;;;;;4.25;1.77;;;16.70;99.90;;;;;;5051494;28;20045;-84
2021/05/10 12:25:32;;;;;;;6.97;2.00;;;17.00;99.90;;;;;;5056607;28;20107;-85
2021/05/10 12:28:08;;;;;;;4.93;1.92;;;17.70;99.90;;;;;;5060965;28;20098;-86
2021/05/10 12:30:55;;;;;;;5.13;2.05;;;18.90;99.90;;;;;;5049251;28;20084;-86
2021/05/10 12:33:26;;;;;;;4.53;1.88;;;20.20;99.90;;;;;;5040317;28;20124;-85
2021/05/10 12:36:04;;;;;;;1.90;1.45;;;20.50;99.90;;;;;;5048690;28;20518;-86
2021/05/10 12:38:34;;;;;;;2.47;1.77;;;20.80;99.90;;;;;;5048807;28;20052;-86
2021/05/10 12:41:29;;;;;;;2.33;1.40;;;21.50;99.90;;;;;;5059848;28;20049;-86
2021/05/10 12:43:56;;;;;;;3.90;1.60;;;22.40;97.40;;;;;;5044195;28;20060;-85
2021/05/10 12:46:24;;;;;;;3.63;1.65;;;23.50;97.00;;;;;;5056911;28;20053;-86
2021/05/10 12:48:51;;;;;;;4.13;1.85;;;24.40;85.10;;;;;;5058277;28;20130;-86
2021/05/10 12:51:24;;;;;;;6.60;1.73;;;24.80;81.50;;;;;;5032386;28;20480;-85
2021/05/10 12:54:04;;;;;;;3.03;1.45;;;24.90;76.80;;;;;;5045430;28;20079;-86
2021/05/10 12:56:44;;;;;;;2.85;1.15;;;25.00;71.30;;;;;;5062919;28;20056;-87
2021/05/10 12:59:11;;;;;;;5.18;1.73;;;25.20;69.50;;;;;;5046468;28;20604;-85
2021/05/10 13:01:37;;;;;;;2.88;1.20;;;25.50;71.40;;;;;;5047814;28;20076;-85
2021/05/10 13:04:10;;;;;;;3.20;1.50;;;26.00;68.00;;;;;;5045752;28;20477;-86